FW1784 Weather Reports


Display with metric or nautical units.
time (UTC)temp
F
wind
direction
speed
MPH
gust
MPH
rain 1hr
in
rain 24hr
in
rain mn
in
humidity
%
barometer
mb
20210225023030 43 213 2.0 7.0 0.00 0.00 0.00 75 1006.0
20210225020028 44 223 3.0 9.0 0.00 0.00 0.00 63 1006.3
20210225013146 44 225 2.0 8.0 0.00 0.00 0.00 63 1006.5
20210225010027 41 244 1.0 5.0 0.00 0.00 0.00 68 1007.1
20210225000030 41 171 0.0 3.0 0.00 0.00 0.00 67 1007.3
20210224233055 42 267 1.0 3.0 0.00 0.00 0.00 62 1007.4
20210224231524 44 239 1.0 4.0 0.00 0.00 0.00 58 1007.7
20210224224521 45 216 2.0 6.0 0.00 0.00 0.00 54 1008.0
20210224220040 45 211 3.0 7.0 0.00 0.00 0.00 55 1008.1
20210224214525 46 211 4.0 10.0 0.00 0.00 0.00 55 1008.4
20210224213029 46 231 1.0 6.0 0.00 0.00 0.00 54 1008.7
20210224211531 48 222 1.0 6.0 0.00 0.00 0.00 52 1009.1
20210224210019 48 137 2.0 8.0 0.00 0.00 0.00 50 1009.2
20210224203024 49 253 3.0 10.0 0.00 0.00 0.00 48 1010.0
20210224201516 49 225 4.0 14.0 0.00 0.00 0.00 48 1010.4
20210224194509 49 209 4.0 8.0 0.00 0.00 0.00 52 1011.1
20210224190023 49 190 3.0 10.0 0.00 0.00 0.00 53 1011.7
20210224184517 49 221 2.0 10.0 0.00 0.00 0.00 53 1011.9
20210224174521 48 266 0.0 5.0 0.00 0.01 0.00 61 1013.1
20210224163018 45 202 1.0 8.0 0.00 0.01 0.00 62 1015.4
20210224160028 44 146 1.0 3.0 0.00 0.01 0.00 67 1016.2
20210224153022 43 217 1.0 6.0 0.00 0.01 0.00 69 1016.6
20210224151522 43 223 2.0 5.0 0.00 0.01 0.00 70 1016.7
20210224150025 43 213 1.0 8.0 0.00 0.01 0.00 71 1016.9
20210224143023 41 153 1.0 5.0 0.00 0.01 0.00 77 1017.1
20210224140026 38 186 1.0 3.0 0.00 0.01 0.00 80 1017.3
20210224133044 38 142 1.0 4.0 0.00 0.01 0.00 85 1017.1
20210224124527 32 221 0.0 0.0 0.00 0.01 0.00 95 1017.0
20210224123057 30 221 0.0 0.0 0.00 0.01 0.00 95 1016.9
20210224121514 30 221 0.0 0.0 0.00 0.01 0.00 94 1016.7
20210224114522 30 221 0.0 0.0 0.00 0.01 0.00 93 1016.3
20210224110037 31 221 0.0 0.0 0.00 0.01 0.00 91 1015.8
20210224104510 32 221 0.0 2.0 0.00 0.01 0.00 91 1015.4
20210224094513 34 272 1.0 3.0 0.00 0.01 0.00 88 1014.2
20210224090029 35 115 0.0 3.0 0.00 0.01 0.00 86 1013.2
20210224084522 35 217 1.0 4.0 0.00 0.01 0.00 84 1013.4
20210224081512 38 68 0.0 4.0 0.00 0.01 0.00 75 1012.8
20210224074517 38 162 1.0 7.0 0.00 0.01 0.00 75 1012.4
20210224070040 39 139 2.0 10.0 0.00 0.01 0.00 74 1011.6
20210224063023 38 140 2.0 8.0 0.00 0.01 0.00 73 1011.5
20210224061520 39 212 1.0 8.0 0.00 0.01 0.00 72 1011.1
20210224054516 39 171 1.0 8.0 0.00 0.01 0.00 73 1011.0
20210224044625 39 227 3.0 10.0 0.00 0.01 0.01 71 1010.2
20210224040029 39 121 3.0 18.0 0.00 0.01 0.01 77 1009.3
20210224033024 39 262 4.0 13.0 0.00 0.01 0.01 80 1009.1
20210224031519 39 58 4.0 14.0 0.00 0.01 0.01 80 1008.9
20210224024510 39 32 2.0 13.0 0.00 0.01 0.01 81 1008.4